createdAt,value
2023-04-02T00:00:32.259Z,1006.29
2023-04-02T00:01:32.267Z,1006.32
2023-04-02T00:02:32.433Z,1006.32
2023-04-02T00:03:32.347Z,1006.39
2023-04-02T00:04:32.293Z,1006.37
2023-04-02T00:05:32.349Z,1006.43
2023-04-02T00:06:32.318Z,1006.47
2023-04-02T00:07:32.321Z,1006.51
2023-04-02T00:08:32.329Z,1006.50
2023-04-02T00:09:32.339Z,1006.55
2023-04-02T00:10:32.347Z,1006.50
2023-04-02T00:11:32.366Z,1006.49
2023-04-02T00:12:32.369Z,1006.52
2023-04-02T00:13:32.388Z,1006.57
2023-04-02T00:14:32.386Z,1006.53
2023-04-02T00:15:32.579Z,1006.54
2023-04-02T00:16:32.459Z,1006.54
2023-04-02T00:17:32.413Z,1006.60
2023-04-02T00:18:32.454Z,1006.61
2023-04-02T00:19:32.428Z,1006.54
2023-04-02T00:20:32.440Z,1006.75
2023-04-02T00:21:32.454Z,1006.63
2023-04-02T00:22:32.458Z,1006.62
2023-04-02T00:23:32.486Z,1006.63
2023-04-02T00:24:32.478Z,1006.61
2023-04-02T00:25:32.650Z,1006.70
2023-04-02T00:26:32.496Z,1006.72
2023-04-02T00:27:32.505Z,1006.70
2023-04-02T00:28:32.513Z,1006.71
2023-04-02T00:29:32.529Z,1006.64
2023-04-02T00:30:32.528Z,1006.80
2023-04-02T00:31:32.580Z,1006.77
2023-04-02T00:32:32.581Z,1006.70
2023-04-02T00:33:32.556Z,1006.79
2023-04-02T00:34:32.567Z,1006.79
2023-04-02T00:35:32.729Z,1006.83
2023-04-02T00:36:32.587Z,1006.79
2023-04-02T00:37:32.595Z,1006.85
2023-04-02T00:38:32.601Z,1006.86
2023-04-02T00:39:32.610Z,1006.84
2023-04-02T00:40:32.620Z,1006.91
2023-04-02T00:41:32.630Z,1006.98
2023-04-02T00:42:32.635Z,1006.96
2023-04-02T00:43:32.646Z,1006.99
2023-04-02T00:44:32.655Z,1006.99
2023-04-02T00:45:32.878Z,1007.05
2023-04-02T00:46:32.708Z,1006.98
2023-04-02T00:47:32.713Z,1006.97
2023-04-02T00:48:32.711Z,1007.08
2023-04-02T00:49:32.707Z,1007.10
2023-04-02T00:50:32.706Z,1007.09
2023-04-02T00:51:32.720Z,1007.07
2023-04-02T00:52:32.727Z,1007.13
2023-04-02T00:53:32.737Z,1007.04
2023-04-02T00:54:32.759Z,1007.07
2023-04-02T00:55:33.016Z,1007.04
2023-04-02T00:56:32.766Z,1007.06
2023-04-02T00:57:32.882Z,1007.09
2023-04-02T00:58:32.778Z,1007.10
2023-04-02T00:59:32.792Z,1007.13
2023-04-02T01:00:32.796Z,1007.11
2023-04-02T01:01:32.813Z,1007.13
2023-04-02T01:02:32.964Z,1007.16
2023-04-02T01:03:32.962Z,1007.15
2023-04-02T01:04:32.833Z,1007.20
2023-04-02T01:05:33.126Z,1007.15
2023-04-02T01:06:32.852Z,1007.18
2023-04-02T01:07:32.857Z,1007.19
2023-04-02T01:08:32.866Z,1007.22
2023-04-02T01:09:32.879Z,1007.23
2023-04-02T01:10:32.910Z,1007.28
2023-04-02T01:11:32.895Z,1007.27
2023-04-02T01:12:32.904Z,1007.24
2023-04-02T01:13:32.911Z,1007.27
2023-04-02T01:14:32.917Z,1007.28
2023-04-02T01:15:33.135Z,1007.37
2023-04-02T01:16:33.049Z,1007.37
2023-04-02T01:17:32.976Z,1007.34
2023-04-02T01:18:32.955Z,1007.40
2023-04-02T01:19:32.962Z,1007.41
2023-04-02T01:20:32.979Z,1007.43
2023-04-02T01:21:32.983Z,1007.39
2023-04-02T01:22:32.989Z,1007.48
2023-04-02T01:23:32.997Z,1007.43
2023-04-02T01:24:33.006Z,1007.48
2023-04-02T01:25:33.253Z,1007.49
2023-04-02T01:26:33.028Z,1007.55
2023-04-02T01:27:33.043Z,1007.55
2023-04-02T01:28:33.042Z,1007.61
2023-04-02T01:29:33.053Z,1007.59
2023-04-02T01:30:33.058Z,1007.59
2023-04-02T01:31:33.096Z,1007.66
2023-04-02T01:32:33.094Z,1007.61
2023-04-02T01:33:33.086Z,1007.58
2023-04-02T01:34:33.094Z,1007.65
2023-04-02T01:35:33.314Z,1007.66
2023-04-02T01:36:33.113Z,1007.71
2023-04-02T01:37:33.121Z,1007.74
2023-04-02T01:38:33.132Z,1007.69
2023-04-02T01:39:33.139Z,1007.76
2023-04-02T01:40:33.159Z,1007.77
2023-04-02T01:41:33.156Z,1007.78
2023-04-02T01:42:33.165Z,1007.75
2023-04-02T01:43:33.174Z,1007.76
2023-04-02T01:44:33.180Z,1007.80
2023-04-02T01:45:33.454Z,1007.70
2023-04-02T01:46:33.230Z,1007.86
2023-04-02T01:47:33.248Z,1007.82
2023-04-02T01:48:33.218Z,1007.85
2023-04-02T01:49:33.230Z,1007.87
2023-04-02T01:50:33.236Z,1007.91
2023-04-02T01:51:33.266Z,1007.91
2023-04-02T01:52:33.253Z,1007.95
2023-04-02T01:53:33.259Z,1007.95
2023-04-02T01:54:33.270Z,1008.00
2023-04-02T01:55:33.526Z,1008.00
2023-04-02T01:56:33.293Z,1007.98
2023-04-02T01:57:33.419Z,1008.11
2023-04-02T01:58:33.304Z,1008.07
2023-04-02T01:59:33.355Z,1008.09
2023-04-02T02:00:33.365Z,1008.10
2023-04-02T02:01:33.336Z,1008.16
2023-04-02T02:02:33.454Z,1008.09
2023-04-02T02:03:33.348Z,1008.16
2023-04-02T02:04:33.356Z,1008.17
2023-04-02T02:05:33.570Z,1008.17
2023-04-02T02:06:33.374Z,1008.22
2023-04-02T02:07:33.386Z,1008.24
2023-04-02T02:08:33.395Z,1008.23
2023-04-02T02:09:33.402Z,1008.21
2023-04-02T02:10:33.412Z,1008.27
2023-04-02T02:11:33.427Z,1008.38
2023-04-02T02:12:33.432Z,1008.33
2023-04-02T02:13:33.453Z,1008.27
2023-04-02T02:14:33.449Z,1008.37
2023-04-02T02:15:33.664Z,1008.36
2023-04-02T02:16:33.486Z,1008.32
2023-04-02T02:17:33.474Z,1008.39
2023-04-02T02:18:33.508Z,1008.42
2023-04-02T02:19:33.500Z,1008.44
2023-04-02T02:20:33.516Z,1008.45
2023-04-02T02:21:33.538Z,1008.45
2023-04-02T02:22:33.539Z,1008.43
2023-04-02T02:23:33.573Z,1008.45
2023-04-02T02:24:33.553Z,1008.49
2023-04-02T02:25:33.818Z,1008.54
2023-04-02T02:26:33.577Z,1008.56
2023-04-02T02:27:33.596Z,1008.56
2023-04-02T02:28:33.597Z,1008.55
2023-04-02T02:29:33.597Z,1008.60
2023-04-02T02:30:33.621Z,1008.57
2023-04-02T02:31:33.700Z,1008.65
2023-04-02T02:32:33.633Z,1008.66
2023-04-02T02:33:33.650Z,1008.64
2023-04-02T02:34:33.629Z,1008.58
2023-04-02T02:35:34.006Z,1008.61
2023-04-02T02:36:33.673Z,1008.55
2023-04-02T02:37:33.655Z,1008.61
2023-04-02T02:38:33.666Z,1008.64
2023-04-02T02:39:33.675Z,1008.78
2023-04-02T02:40:33.684Z,1008.80
2023-04-02T02:41:33.693Z,1008.66
2023-04-02T02:42:33.708Z,1008.77
2023-04-02T02:43:33.707Z,1008.75
2023-04-02T02:44:33.717Z,1008.78
2023-04-02T02:45:34.061Z,1008.82
2023-04-02T02:46:33.740Z,1008.76
2023-04-02T02:47:33.768Z,1008.82
2023-04-02T02:48:33.754Z,1008.87
2023-04-02T02:49:33.770Z,1008.87
2023-04-02T02:50:33.774Z,1008.89
2023-04-02T02:51:33.780Z,1008.90
2023-04-02T02:52:33.783Z,1008.91
2023-04-02T02:53:33.796Z,1008.97
2023-04-02T02:54:33.800Z,1008.97
2023-04-02T02:55:34.071Z,1008.92
2023-04-02T02:56:33.821Z,1008.99
2023-04-02T02:57:33.883Z,1009.01
2023-04-02T02:58:33.833Z,1009.08
2023-04-02T02:59:33.842Z,1009.03
2023-04-02T03:00:33.855Z,1009.09
2023-04-02T03:01:33.917Z,1009.11
2023-04-02T03:02:33.949Z,1009.08
2023-04-02T03:03:34.197Z,1009.14
2023-04-02T03:04:33.888Z,1009.12
2023-04-02T03:05:34.088Z,1009.15
2023-04-02T03:06:33.920Z,1009.19
2023-04-02T03:07:33.913Z,1009.19
2023-04-02T03:08:33.938Z,1009.21
2023-04-02T03:09:33.927Z,1009.19
2023-04-02T03:10:33.937Z,1009.13
2023-04-02T03:11:33.947Z,1009.27
2023-04-02T03:12:33.965Z,1009.29
2023-04-02T03:13:33.963Z,1009.31
2023-04-02T03:14:33.971Z,1009.28
2023-04-02T03:15:34.254Z,1009.30
2023-04-02T03:16:34.004Z,1009.35
2023-04-02T03:17:34.024Z,1009.35
2023-04-02T03:18:34.021Z,1009.31
2023-04-02T03:19:34.014Z,1009.33
2023-04-02T03:20:34.028Z,1009.46
2023-04-02T03:21:34.031Z,1009.41
2023-04-02T03:22:34.038Z,1009.46
2023-04-02T03:23:34.050Z,1009.43
2023-04-02T03:24:34.060Z,1009.48
2023-04-02T03:25:34.189Z,1009.46
2023-04-02T03:26:34.084Z,1009.57
2023-04-02T03:27:34.088Z,1009.56
2023-04-02T03:28:34.094Z,1009.51
2023-04-02T03:29:34.101Z,1009.54
2023-04-02T03:30:34.107Z,1009.61
2023-04-02T03:31:34.160Z,1009.61
2023-04-02T03:32:34.176Z,1009.60
2023-04-02T03:33:34.150Z,1009.58
2023-04-02T03:34:34.147Z,1009.64
2023-04-02T03:35:34.384Z,1009.58
2023-04-02T03:36:34.161Z,1009.68
2023-04-02T03:37:34.169Z,1009.72
2023-04-02T03:38:34.178Z,1009.72
2023-04-02T03:39:34.187Z,1009.79
2023-04-02T03:40:34.197Z,1009.79
2023-04-02T03:41:34.206Z,1009.80
2023-04-02T03:42:34.213Z,1009.77
2023-04-02T03:43:34.222Z,1009.82
2023-04-02T03:44:34.233Z,1009.83
2023-04-02T03:45:34.509Z,1009.86
2023-04-02T03:46:34.305Z,1009.85
2023-04-02T03:47:34.306Z,1009.89
2023-04-02T03:48:34.274Z,1009.94
2023-04-02T03:49:34.291Z,1009.90
2023-04-02T03:50:34.290Z,1009.93
2023-04-02T03:51:34.292Z,1009.91
2023-04-02T03:52:34.304Z,1009.95
2023-04-02T03:53:34.310Z,1009.96
2023-04-02T03:54:34.316Z,1010.02
2023-04-02T03:55:34.573Z,1010.03
2023-04-02T03:56:34.361Z,1010.02
2023-04-02T03:57:34.360Z,1010.00
2023-04-02T03:58:34.353Z,1010.03
2023-04-02T03:59:34.361Z,1010.15
2023-04-02T04:00:34.372Z,1010.11
2023-04-02T04:01:34.476Z,1010.12
2023-04-02T04:02:34.466Z,1010.15
2023-04-02T04:03:34.394Z,1010.21
2023-04-02T04:04:34.475Z,1010.16
2023-04-02T04:05:34.532Z,1010.23
2023-04-02T04:06:34.457Z,1010.16
2023-04-02T04:07:34.433Z,1010.25
2023-04-02T04:08:34.440Z,1010.23
2023-04-02T04:09:34.445Z,1010.25
2023-04-02T04:10:34.466Z,1010.29
2023-04-02T04:11:34.463Z,1010.34
2023-04-02T04:12:34.475Z,1010.27
2023-04-02T04:13:34.485Z,1010.38
2023-04-02T04:14:34.491Z,1010.40
2023-04-02T04:15:34.787Z,1010.38
2023-04-02T04:16:34.550Z,1010.36
2023-04-02T04:17:34.585Z,1010.43
2023-04-02T04:18:34.527Z,1010.40
2023-04-02T04:19:34.537Z,1010.41
2023-04-02T04:20:34.548Z,1010.47
2023-04-02T04:21:34.552Z,1010.47
2023-04-02T04:22:34.563Z,1010.44
2023-04-02T04:23:34.568Z,1010.47
2023-04-02T04:24:34.583Z,1010.53
2023-04-02T04:25:34.804Z,1010.48
2023-04-02T04:26:34.598Z,1010.49
2023-04-02T04:27:34.615Z,1010.59
2023-04-02T04:28:34.623Z,1010.60
2023-04-02T04:29:34.625Z,1010.56
2023-04-02T04:30:34.632Z,1010.55
2023-04-02T04:31:34.661Z,1010.65
2023-04-02T04:32:34.688Z,1010.64
2023-04-02T04:33:34.655Z,1010.66
2023-04-02T04:34:34.665Z,1010.72
2023-04-02T04:35:34.825Z,1010.68
2023-04-02T04:36:34.687Z,1010.76
2023-04-02T04:37:34.695Z,1010.74
2023-04-02T04:38:34.703Z,1010.74
2023-04-02T04:39:34.803Z,1010.78
2023-04-02T04:40:34.725Z,1010.76
2023-04-02T04:41:34.749Z,1010.85
2023-04-02T04:42:34.739Z,1010.88
2023-04-02T04:43:34.746Z,1010.87
2023-04-02T04:44:34.754Z,1010.88
2023-04-02T04:45:34.963Z,1010.91
2023-04-02T04:46:34.771Z,1010.91
2023-04-02T04:47:34.802Z,1010.94
2023-04-02T04:48:35.305Z,1010.98
2023-04-02T04:49:34.802Z,1011.00
2023-04-02T04:50:34.808Z,1010.99
2023-04-02T04:51:34.819Z,1011.06
2023-04-02T04:52:34.832Z,1011.11
2023-04-02T04:53:34.836Z,1011.01
2023-04-02T04:54:34.842Z,1011.05
2023-04-02T04:55:35.145Z,1011.08
2023-04-02T04:56:34.863Z,1011.08
2023-04-02T04:57:34.881Z,1011.14
2023-04-02T04:58:34.878Z,1011.16
2023-04-02T04:59:34.889Z,1011.20
2023-04-02T05:00:34.893Z,1011.18
2023-04-02T05:01:34.922Z,1011.22
2023-04-02T05:02:34.980Z,1011.18
2023-04-02T05:03:34.926Z,1011.25
2023-04-02T05:04:34.952Z,1011.26
2023-04-02T05:05:35.063Z,1011.24
2023-04-02T05:06:34.948Z,1011.24
2023-04-02T05:07:34.960Z,1011.36
2023-04-02T05:08:34.969Z,1011.38
2023-04-02T05:09:34.970Z,1011.42
2023-04-02T05:10:34.978Z,1011.41
2023-04-02T05:11:34.988Z,1011.41
2023-04-02T05:12:35.006Z,1011.35
2023-04-02T05:13:35.007Z,1011.38
2023-04-02T05:14:35.014Z,1011.46
2023-04-02T05:15:35.367Z,1011.47
2023-04-02T05:16:35.096Z,1011.48
2023-04-02T05:17:35.093Z,1011.53
2023-04-02T05:18:35.048Z,1011.54
2023-04-02T05:19:35.061Z,1011.55
2023-04-02T05:20:35.072Z,1011.59
2023-04-02T05:21:35.077Z,1011.60
2023-04-02T05:22:35.087Z,1011.64
2023-04-02T05:23:35.094Z,1011.61
2023-04-02T05:24:35.105Z,1011.64
2023-04-02T05:25:35.289Z,1011.67
2023-04-02T05:26:35.120Z,1011.69
2023-04-02T05:27:35.129Z,1011.63
2023-04-02T05:28:35.141Z,1011.70
2023-04-02T05:29:35.150Z,1011.75
2023-04-02T05:30:35.161Z,1011.78
2023-04-02T05:31:35.225Z,1011.77
2023-04-02T05:32:35.194Z,1011.80
2023-04-02T05:33:35.185Z,1011.80
2023-04-02T05:34:35.191Z,1011.78
2023-04-02T05:35:35.369Z,1011.77
2023-04-02T05:36:35.213Z,1011.82
2023-04-02T05:37:35.225Z,1011.86
2023-04-02T05:38:35.232Z,1011.95
2023-04-02T05:39:35.240Z,1011.88
2023-04-02T05:40:35.249Z,1011.93
2023-04-02T05:41:35.267Z,1011.94
2023-04-02T05:42:35.268Z,1011.91
2023-04-02T05:43:35.279Z,1011.95
2023-04-02T05:44:35.833Z,1011.98
2023-04-02T05:45:35.505Z,1011.97
2023-04-02T05:46:35.357Z,1011.98
2023-04-02T05:47:35.338Z,1011.95
2023-04-02T05:48:35.323Z,1011.99
2023-04-02T05:49:35.342Z,1012.07
2023-04-02T05:50:35.344Z,1012.01
2023-04-02T05:51:35.350Z,1012.05
2023-04-02T05:52:35.363Z,1012.04
2023-04-02T05:53:35.392Z,1012.05
2023-04-02T05:54:35.395Z,1012.11
2023-04-02T05:55:35.652Z,1012.10
2023-04-02T05:56:35.397Z,1012.14
2023-04-02T05:57:44.614Z,1012.12
2023-04-02T05:58:36.759Z,1012.22
2023-04-02T05:59:35.433Z,1012.18
2023-04-02T06:00:35.450Z,1012.19
2023-04-02T06:01:35.462Z,1012.25
2023-04-02T06:02:35.506Z,1012.30
2023-04-02T06:03:35.512Z,1012.31
2023-04-02T06:04:35.478Z,1012.27
2023-04-02T06:05:35.673Z,1012.32
2023-04-02T06:06:35.489Z,1012.32
2023-04-02T06:07:35.507Z,1012.33
2023-04-02T06:08:35.531Z,1012.34
2023-04-02T06:09:35.519Z,1012.35
2023-04-02T06:10:35.536Z,1012.40
2023-04-02T06:11:35.539Z,1012.43
2023-04-02T06:12:35.547Z,1012.43
2023-04-02T06:13:35.553Z,1012.54
2023-04-02T06:14:35.562Z,1012.49
2023-04-02T06:15:35.795Z,1012.48
2023-04-02T06:16:35.765Z,1012.55
2023-04-02T06:17:35.697Z,1012.52
2023-04-02T06:18:35.611Z,1012.57
2023-04-02T06:19:35.615Z,1012.59
2023-04-02T06:20:35.621Z,1012.59
2023-04-02T06:21:35.629Z,1012.69
2023-04-02T06:22:35.654Z,1012.66
2023-04-02T06:23:35.647Z,1012.64
2023-04-02T06:24:35.656Z,1012.64
2023-04-02T06:25:35.769Z,1012.65
2023-04-02T06:26:35.686Z,1012.72
2023-04-02T06:27:35.688Z,1012.86
2023-04-02T06:28:35.696Z,1012.75
2023-04-02T06:29:35.716Z,1012.82
2023-04-02T06:30:35.754Z,1012.80
2023-04-02T06:31:35.727Z,1012.81
2023-04-02T06:32:35.781Z,1012.87
2023-04-02T06:33:35.746Z,1012.90
2023-04-02T06:34:35.756Z,1012.95
2023-04-02T06:35:35.949Z,1012.99
2023-04-02T06:36:35.775Z,1012.98
2023-04-02T06:37:35.792Z,1013.01
2023-04-02T06:38:35.807Z,1013.05
2023-04-02T06:39:35.810Z,1013.03
2023-04-02T06:40:35.814Z,1013.02
2023-04-02T06:41:35.824Z,1013.02
2023-04-02T06:42:35.843Z,1013.07
2023-04-02T06:43:35.845Z,1013.07
2023-04-02T06:44:35.869Z,1013.09
2023-04-02T06:45:36.129Z,1013.18
2023-04-02T06:46:35.968Z,1013.15
2023-04-02T06:47:35.928Z,1013.13
2023-04-02T06:48:35.907Z,1013.20
2023-04-02T06:49:35.908Z,1013.27
2023-04-02T06:50:35.930Z,1013.16
2023-04-02T06:51:35.931Z,1013.18
2023-04-02T06:52:35.943Z,1013.23
2023-04-02T06:53:35.951Z,1013.21
2023-04-02T06:54:35.968Z,1013.27
2023-04-02T06:55:36.186Z,1013.27
2023-04-02T06:56:35.982Z,1013.32
2023-04-02T06:57:36.067Z,1013.33
2023-04-02T06:58:36.011Z,1013.30
2023-04-02T06:59:36.032Z,1013.38
2023-04-02T07:00:36.070Z,1013.32
2023-04-02T07:01:36.112Z,1013.36
2023-04-02T07:02:36.079Z,1013.32
2023-04-02T07:03:36.055Z,1013.38
2023-04-02T07:04:36.118Z,1013.37
2023-04-02T07:05:36.254Z,1013.38
2023-04-02T07:06:36.123Z,1013.36
2023-04-02T07:07:36.184Z,1013.30
2023-04-02T07:08:36.107Z,1013.39
2023-04-02T07:09:36.125Z,1013.41
2023-04-02T07:10:36.139Z,1013.34
2023-04-02T07:11:36.136Z,1013.41
2023-04-02T07:12:36.158Z,1013.54
2023-04-02T07:13:36.159Z,1013.52
2023-04-02T07:14:36.166Z,1013.52
2023-04-02T07:15:36.440Z,1013.45
2023-04-02T07:16:36.191Z,1013.45
2023-04-02T07:17:36.222Z,1013.48
2023-04-02T07:18:36.211Z,1013.47
2023-04-02T07:19:36.223Z,1013.46
2023-04-02T07:20:36.235Z,1013.45
2023-04-02T07:21:36.258Z,1013.47
2023-04-02T07:22:36.263Z,1013.47
2023-04-02T07:23:36.269Z,1013.50
2023-04-02T07:24:36.464Z,1013.42
2023-04-02T07:25:36.548Z,1013.46
2023-04-02T07:26:36.304Z,1013.52
2023-04-02T07:27:36.317Z,1013.59
2023-04-02T07:28:36.331Z,1013.56
2023-04-02T07:29:36.339Z,1013.47
2023-04-02T07:30:36.352Z,1013.55
2023-04-02T07:31:36.409Z,1013.57
2023-04-02T07:32:36.418Z,1013.59
2023-04-02T07:33:36.386Z,1013.65
2023-04-02T07:34:36.434Z,1013.61
2023-04-02T07:35:36.560Z,1013.57
2023-04-02T07:36:36.428Z,1013.61
2023-04-02T07:37:36.436Z,1013.68
2023-04-02T07:38:36.446Z,1013.72
2023-04-02T07:39:38.338Z,1013.65
2023-04-02T07:40:36.470Z,1013.74
2023-04-02T07:41:36.484Z,1013.69
2023-04-02T07:42:36.497Z,1013.72
2023-04-02T07:43:36.507Z,1013.76
2023-04-02T07:44:36.517Z,1013.80
2023-04-02T07:45:36.828Z,1013.79
2023-04-02T07:46:36.563Z,1013.78
2023-04-02T07:47:36.591Z,1013.85
2023-04-02T07:48:36.579Z,1013.83
2023-04-02T07:49:36.580Z,1013.84
2023-04-02T07:50:36.602Z,1014.00
2023-04-02T07:51:36.606Z,1013.94
2023-04-02T07:52:37.605Z,1013.91
2023-04-02T07:53:36.630Z,1013.99
2023-04-02T07:54:36.642Z,1013.93
2023-04-02T07:55:36.879Z,1013.96
2023-04-02T07:56:36.667Z,1013.99
2023-04-02T07:57:36.682Z,1014.09
2023-04-02T07:58:36.696Z,1014.08
2023-04-02T07:59:36.703Z,1014.01
2023-04-02T08:00:36.716Z,1014.06
2023-04-02T08:01:36.730Z,1014.04
2023-04-02T08:02:36.877Z,1014.11
2023-04-02T08:03:36.845Z,1014.15
2023-04-02T08:04:36.765Z,1014.19
2023-04-02T08:05:36.961Z,1014.20
2023-04-02T08:06:36.793Z,1014.19
2023-04-02T08:07:36.804Z,1014.16
2023-04-02T08:08:36.816Z,1014.21
2023-04-02T08:09:36.833Z,1014.22
2023-04-02T08:10:36.838Z,1014.21
2023-04-02T08:11:36.852Z,1014.29
2023-04-02T08:12:36.879Z,1014.35
2023-04-02T08:13:36.882Z,1014.32
2023-04-02T08:14:36.895Z,1014.36
2023-04-02T08:15:37.148Z,1014.33
2023-04-02T08:16:36.988Z,1014.40
2023-04-02T08:17:36.986Z,1014.37
2023-04-02T08:18:36.949Z,1014.40
2023-04-02T08:19:47.776Z,1014.34
2023-04-02T08:20:36.966Z,1014.40
2023-04-02T08:21:36.978Z,1014.39
2023-04-02T08:22:36.992Z,1014.40
2023-04-02T08:23:37.009Z,1014.43
2023-04-02T08:24:37.014Z,1014.42
2023-04-02T08:25:37.202Z,1014.48
2023-04-02T08:26:37.041Z,1014.50
2023-04-02T08:27:37.057Z,1014.54
2023-04-02T08:28:37.064Z,1014.50
2023-04-02T08:29:37.079Z,1014.53
2023-04-02T08:30:37.112Z,1014.64
2023-04-02T08:31:37.102Z,1014.66
2023-04-02T08:32:37.148Z,1014.63
2023-04-02T08:33:37.126Z,1014.66
2023-04-02T08:34:37.142Z,1014.64
2023-04-02T08:35:37.380Z,1014.66
2023-04-02T08:36:37.168Z,1014.62
2023-04-02T08:37:37.181Z,1014.75
2023-04-02T08:38:37.191Z,1014.72
2023-04-02T08:39:37.197Z,1014.69
2023-04-02T08:40:37.210Z,1014.73
2023-04-02T08:41:37.227Z,1014.79
2023-04-02T08:42:37.234Z,1014.73
2023-04-02T08:43:37.247Z,1014.79
2023-04-02T08:44:37.265Z,1014.82
2023-04-02T08:45:37.274Z,1014.78
2023-04-02T08:46:37.343Z,1014.88
2023-04-02T08:47:37.358Z,1014.89
2023-04-02T08:48:37.318Z,1014.90
2023-04-02T08:49:37.338Z,1014.89
2023-04-02T08:50:37.342Z,1014.96
2023-04-02T08:51:37.343Z,1014.97
2023-04-02T08:52:37.357Z,1014.97
2023-04-02T08:53:37.377Z,1015.00
2023-04-02T08:54:37.393Z,1015.05
2023-04-02T08:55:37.554Z,1015.06
2023-04-02T08:56:37.421Z,1015.04
2023-04-02T08:57:37.439Z,1015.15
2023-04-02T08:58:37.455Z,1015.14
2023-04-02T08:59:37.443Z,1015.14
2023-04-02T09:00:38.058Z,1015.16
2023-04-02T09:01:37.498Z,1015.12
2023-04-02T09:02:37.533Z,1015.09
2023-04-02T09:03:37.493Z,1015.15
2023-04-02T09:04:37.570Z,1015.09
2023-04-02T09:05:37.817Z,1015.11
2023-04-02T09:06:37.539Z,1015.09
2023-04-02T09:07:37.544Z,1015.13
2023-04-02T09:08:37.568Z,1015.13
2023-04-02T09:09:37.574Z,1015.10
2023-04-02T09:10:37.584Z,1015.25
2023-04-02T09:11:37.592Z,1015.26
2023-04-02T09:12:37.606Z,1015.28
2023-04-02T09:13:37.630Z,1015.28
2023-04-02T09:14:37.631Z,1015.30
2023-04-02T09:15:37.939Z,1015.27
2023-04-02T09:16:37.658Z,1015.25
2023-04-02T09:17:50.488Z,1015.15
2023-04-02T09:18:37.764Z,1015.22
2023-04-02T09:19:37.706Z,1015.28
2023-04-02T09:20:37.724Z,1015.27
2023-04-02T09:21:37.726Z,1015.23
2023-04-02T09:22:37.735Z,1015.16
2023-04-02T09:23:37.749Z,1015.28
2023-04-02T09:24:37.797Z,1015.21
2023-04-02T09:25:37.974Z,1015.19
2023-04-02T09:26:37.783Z,1015.20
2023-04-02T09:27:37.798Z,1015.28
2023-04-02T09:28:37.809Z,1015.23
2023-04-02T09:29:37.825Z,1015.29
2023-04-02T09:30:37.837Z,1015.21
2023-04-02T09:31:37.877Z,1015.20
2023-04-02T09:32:37.939Z,1015.27
2023-04-02T09:33:37.870Z,1015.32
2023-04-02T09:34:37.893Z,1015.36
2023-04-02T09:35:38.059Z,1015.38
2023-04-02T09:36:37.920Z,1015.41
2023-04-02T09:37:37.929Z,1015.46
2023-04-02T09:38:37.929Z,1015.46
2023-04-02T09:39:37.942Z,1015.47
2023-04-02T09:40:37.956Z,1015.50
2023-04-02T09:41:37.976Z,1015.50
2023-04-02T09:42:37.982Z,1015.43
2023-04-02T09:43:38.053Z,1015.48
2023-04-02T09:44:38.001Z,1015.44
2023-04-02T09:45:38.018Z,1015.55
2023-04-02T09:46:38.117Z,1015.51
2023-04-02T09:47:38.821Z,1015.52
2023-04-02T09:48:38.057Z,1015.57
2023-04-02T09:49:38.067Z,1015.52
2023-04-02T09:50:38.073Z,1015.69
2023-04-02T09:51:38.083Z,1015.66
2023-04-02T09:52:38.094Z,1015.59
2023-04-02T09:53:38.716Z,1015.71
2023-04-02T09:54:38.127Z,1015.68
2023-04-02T09:55:38.128Z,1015.65
2023-04-02T09:56:38.144Z,1015.66
2023-04-02T09:57:38.164Z,1015.67
2023-04-02T09:58:38.160Z,1015.71
2023-04-02T09:59:38.170Z,1015.69
2023-04-02T10:00:38.186Z,1015.69
2023-04-02T10:01:38.261Z,1015.78
2023-04-02T10:02:38.226Z,1015.72
2023-04-02T10:03:38.233Z,1015.75
2023-04-02T10:04:38.247Z,1015.82
2023-04-02T10:05:41.245Z,1015.85
2023-04-02T10:06:38.250Z,1015.95
2023-04-02T10:07:38.275Z,1015.86
2023-04-02T10:08:38.272Z,1015.77
2023-04-02T10:09:38.288Z,1015.88
2023-04-02T10:10:38.294Z,1015.84
2023-04-02T10:12:38.316Z,1015.79
2023-04-02T10:13:38.335Z,1015.82
2023-04-02T10:14:38.341Z,1015.82
2023-04-02T10:15:38.523Z,1015.85
2023-04-02T10:16:38.430Z,1015.82
2023-04-02T10:17:38.397Z,1015.87
2023-04-02T10:18:38.393Z,1015.84
2023-04-02T10:19:38.398Z,1015.89
2023-04-02T10:20:50.597Z,1015.99
2023-04-02T10:21:38.434Z,1015.99
2023-04-02T10:22:38.435Z,1016.00
2023-04-02T10:23:38.452Z,1015.94
2023-04-02T10:24:38.457Z,1015.96
2023-04-02T10:25:38.470Z,1015.97
2023-04-02T10:26:38.480Z,1016.07
2023-04-02T10:27:38.503Z,1016.10
2023-04-02T10:28:38.506Z,1016.00
2023-04-02T10:29:38.520Z,1016.08
2023-04-02T10:30:38.570Z,1016.04
2023-04-02T10:31:38.542Z,1016.00
2023-04-02T10:32:38.653Z,1016.02
2023-04-02T10:33:38.576Z,1016.07
2023-04-02T10:34:38.870Z,1016.13
2023-04-02T10:35:38.818Z,1016.13
2023-04-02T10:36:38.607Z,1016.08
2023-04-02T10:37:38.620Z,1016.06
2023-04-02T10:38:38.634Z,1016.10
2023-04-02T10:39:38.649Z,1016.10
2023-04-02T10:40:38.663Z,1016.05
2023-04-02T10:41:38.673Z,1016.18
2023-04-02T10:42:38.693Z,1016.25
2023-04-02T10:43:38.710Z,1016.25
2023-04-02T10:44:38.725Z,1016.28
2023-04-02T10:45:38.846Z,1016.24
2023-04-02T10:46:38.839Z,1016.29
2023-04-02T10:47:38.806Z,1016.20
2023-04-02T10:48:38.775Z,1016.20
2023-04-02T10:49:38.817Z,1016.17
2023-04-02T10:50:38.800Z,1016.16
2023-04-02T10:51:38.820Z,1016.17
2023-04-02T10:52:38.832Z,1016.21
2023-04-02T10:53:38.849Z,1016.23
2023-04-02T10:54:38.867Z,1016.20
2023-04-02T10:55:38.881Z,1016.21
2023-04-02T10:56:50.010Z,1016.25
2023-04-02T10:57:39.031Z,1016.27
2023-04-02T10:58:38.928Z,1016.34
2023-04-02T10:59:38.944Z,1016.32
2023-04-02T11:00:38.956Z,1016.33
2023-04-02T11:01:39.004Z,1016.31
2023-04-02T11:02:39.126Z,1016.37
2023-04-02T11:03:39.099Z,1016.36
2023-04-02T11:04:39.020Z,1016.33
2023-04-02T11:05:39.036Z,1016.31
2023-04-02T11:06:39.052Z,1016.33
2023-04-02T11:07:39.073Z,1016.37
2023-04-02T11:08:39.091Z,1016.35
2023-04-02T11:09:39.105Z,1016.36
2023-04-02T11:10:39.116Z,1016.40
2023-04-02T11:11:39.130Z,1016.50
2023-04-02T11:12:41.753Z,1016.54
2023-04-02T11:13:39.165Z,1016.59
2023-04-02T11:14:39.194Z,1016.62
2023-04-02T11:15:39.334Z,1016.75
2023-04-02T11:16:43.383Z,1016.77
2023-04-02T11:17:39.247Z,1016.77
2023-04-02T11:18:39.242Z,1016.75
2023-04-02T11:19:39.256Z,1016.78
2023-04-02T11:20:39.271Z,1016.78
2023-04-02T11:21:51.015Z,1016.79
2023-04-02T11:22:39.301Z,1016.79
2023-04-02T11:23:39.315Z,1016.82
2023-04-02T11:24:39.341Z,1016.81
2023-04-02T11:25:39.346Z,1016.85
2023-04-02T11:26:39.370Z,1016.83
2023-04-02T11:27:39.378Z,1016.82
2023-04-02T11:28:39.394Z,1016.87
2023-04-02T11:29:39.411Z,1016.89
2023-04-02T11:30:39.422Z,1016.87
2023-04-02T11:31:39.470Z,1016.99
2023-04-02T11:32:39.596Z,1016.89
2023-04-02T11:33:41.376Z,1016.95
2023-04-02T11:34:39.488Z,1016.93
2023-04-02T11:35:39.672Z,1017.10
2023-04-02T11:36:39.528Z,1017.07
2023-04-02T11:37:39.543Z,1017.10
2023-04-02T11:38:39.547Z,1017.11
2023-04-02T11:39:39.563Z,1017.12
2023-04-02T11:40:39.583Z,1017.15
2023-04-02T11:41:39.595Z,1017.18
2023-04-02T11:42:39.608Z,1017.21
2023-04-02T11:43:39.626Z,1017.10
2023-04-02T11:44:39.643Z,1017.07
2023-04-02T11:45:52.029Z,1017.05
2023-04-02T11:46:39.701Z,1017.08
2023-04-02T11:47:39.790Z,1017.09
2023-04-02T11:48:39.701Z,1017.08
2023-04-02T11:49:39.770Z,1017.13
2023-04-02T11:50:39.735Z,1017.05
2023-04-02T11:51:39.749Z,1017.14
2023-04-02T11:52:39.773Z,1017.05
2023-04-02T11:53:39.777Z,1017.15
2023-04-02T11:54:39.790Z,1017.10
2023-04-02T11:55:39.998Z,1017.13
2023-04-02T11:56:39.820Z,1017.22
2023-04-02T11:57:39.899Z,1017.20
2023-04-02T11:58:39.851Z,1017.20
2023-04-02T11:59:39.862Z,1017.24
2023-04-02T12:00:39.880Z,1017.30
2023-04-02T12:01:39.918Z,1017.26
2023-04-02T12:02:39.969Z,1017.26
2023-04-02T12:03:39.922Z,1017.33
2023-04-02T12:04:39.949Z,1017.23
2023-04-02T12:05:40.014Z,1017.26
2023-04-02T12:06:39.981Z,1017.26